TAF Text Data
IDs:
Format:
Raw Decoded Include METAR

Data at: 0658 UTC 23 Oct 2018

KIWA 230650Z VRB03KT 20SM SCT080 23/12 A2985

KIWA 230540Z 2306/2406 30005KT P6SM SCT080 OVC250
  FM230700 10005KT P6SM BKN080 OVC250
  FM231700 13010KT P6SM VCSH BKN070 BKN250
  FM232200 34006KT P6SM VCTS BKN070CB BKN250
  FM240300 VRB06KT P6SM FEW080 SCT250 AMD LTD TO CLD VIS AND WIND TIL 231300